createdAt,value
2022-12-01T04:09:20.467Z,10.30
2022-12-01T04:12:06.016Z,10.13
2022-12-01T04:14:34.280Z,10.87
2022-12-01T04:17:03.407Z,10.43
2022-12-01T04:19:32.033Z,11.57
2022-12-01T04:22:00.114Z,11.20
2022-12-01T04:24:29.570Z,11.30
2022-12-01T04:26:57.658Z,11.47
2022-12-01T04:29:25.671Z,11.53
2022-12-01T04:31:55.112Z,11.70
2022-12-01T04:34:23.315Z,11.07
2022-12-01T04:36:51.387Z,11.20
2022-12-01T04:39:19.715Z,10.37
2022-12-01T04:41:49.181Z,11.63
2022-12-01T04:44:17.455Z,11.53
2022-12-01T04:46:45.779Z,11.03
2022-12-01T04:49:13.803Z,11.07
2022-12-01T04:51:42.153Z,11.17
2022-12-01T04:54:10.209Z,11.20
2022-12-01T04:56:38.232Z,10.57
2022-12-01T04:59:07.881Z,11.23
2022-12-01T05:01:36.065Z,10.97
2022-12-01T05:04:04.393Z,11.00
2022-12-01T05:06:32.675Z,10.40
2022-12-01T05:09:02.395Z,9.83
2022-12-01T05:11:31.675Z,10.23
2022-12-01T05:14:00.263Z,10.33
2022-12-01T05:16:34.602Z,9.67
2022-12-01T05:19:22.187Z,10.93
2022-12-01T05:21:51.560Z,10.23
2022-12-01T05:24:20.565Z,10.40
2022-12-01T05:26:48.694Z,11.13
2022-12-01T05:29:16.818Z,10.10
2022-12-01T05:31:46.519Z,9.77
2022-12-01T05:34:14.778Z,9.57
2022-12-01T05:36:43.077Z,9.53
2022-12-01T05:39:11.950Z,9.50
2022-12-01T05:41:40.413Z,10.10
2022-12-01T05:44:08.478Z,10.47
2022-12-01T05:46:36.585Z,9.07
2022-12-01T05:49:07.027Z,10.07
2022-12-01T05:51:35.058Z,9.67
2022-12-01T05:54:03.528Z,10.13
2022-12-01T05:56:31.594Z,10.50
2022-12-01T05:58:59.613Z,9.97
2022-12-01T06:01:27.694Z,9.50
2022-12-01T06:03:55.759Z,9.43
2022-12-01T06:06:25.262Z,9.87
2022-12-01T06:08:56.060Z,10.27
2022-12-01T06:11:24.247Z,9.70
2022-12-01T06:13:54.025Z,10.03
2022-12-01T06:16:22.170Z,10.37
2022-12-01T06:18:51.724Z,10.23
2022-12-01T06:21:19.809Z,9.73
2022-12-01T06:23:50.935Z,10.47
2022-12-01T06:26:19.358Z,10.70
2022-12-01T06:28:47.449Z,9.83
2022-12-01T06:31:15.544Z,10.10
2022-12-01T06:33:43.720Z,9.63
2022-12-01T06:36:12.078Z,10.77
2022-12-01T06:38:40.198Z,10.17
2022-12-01T06:41:09.664Z,10.83
2022-12-01T06:43:38.667Z,10.43
2022-12-01T06:46:07.051Z,11.00
2022-12-01T06:48:35.523Z,11.63
2022-12-01T06:51:03.653Z,11.90
2022-12-01T06:53:31.913Z,11.13
2022-12-01T06:56:01.243Z,11.93
2022-12-01T06:58:31.379Z,12.20
2022-12-01T07:00:59.922Z,11.83
2022-12-01T07:03:28.156Z,12.27
2022-12-01T07:05:58.659Z,11.50
2022-12-01T07:08:26.990Z,12.10
2022-12-01T07:10:58.881Z,11.13
2022-12-01T07:13:32.830Z,11.30
2022-12-01T07:16:03.475Z,11.57
2022-12-01T07:18:32.084Z,10.87
2022-12-01T07:21:02.035Z,10.80
2022-12-01T07:23:30.249Z,11.03
2022-12-01T07:26:02.300Z,12.20
2022-12-01T07:28:31.006Z,11.40
2022-12-01T07:31:04.919Z,10.93
2022-12-01T07:33:33.792Z,10.97
2022-12-01T07:36:02.064Z,10.30
2022-12-01T07:38:30.569Z,10.87
2022-12-01T07:41:03.388Z,11.20
2022-12-01T07:43:32.101Z,10.03
2022-12-01T07:46:07.427Z,10.10
2022-12-01T07:48:36.140Z,11.37
2022-12-01T07:51:04.726Z,11.07
2022-12-01T07:53:32.899Z,10.70
2022-12-01T07:56:05.657Z,11.27
2022-12-01T07:58:37.088Z,10.60
2022-12-01T08:01:11.912Z,10.73
2022-12-01T08:03:41.009Z,11.10
2022-12-01T08:06:10.097Z,10.80
2022-12-01T08:08:39.909Z,10.77
2022-12-01T08:11:11.442Z,11.13
2022-12-01T08:13:40.042Z,11.10
2022-12-01T08:16:13.216Z,11.93
2022-12-01T08:18:44.043Z,10.67
2022-12-01T08:21:15.300Z,10.63
2022-12-01T08:23:44.497Z,11.53
2022-12-01T08:26:14.890Z,11.37
2022-12-01T08:28:44.115Z,12.50
2022-12-01T08:31:15.441Z,12.10
2022-12-01T08:33:43.559Z,12.20
2022-12-01T08:36:11.720Z,11.30
2022-12-01T08:38:39.824Z,12.20
2022-12-01T08:41:10.065Z,11.73
2022-12-01T08:46:32.688Z,11.63
2022-12-01T08:49:00.957Z,12.73
2022-12-01T08:51:29.206Z,12.33
2022-12-01T08:53:58.323Z,13.00
2022-12-01T08:56:28.500Z,12.47
2022-12-01T08:58:56.754Z,13.13
2022-12-01T09:01:25.766Z,13.20
2022-12-01T09:04:06.642Z,12.43
2022-12-01T09:06:38.658Z,13.10
2022-12-01T09:09:06.927Z,12.67
2022-12-01T09:11:34.990Z,13.23
2022-12-01T09:14:03.103Z,13.13
2022-12-01T09:16:31.310Z,14.40
2022-12-01T09:19:00.833Z,12.90
2022-12-01T09:21:31.405Z,12.80
2022-12-01T09:23:59.994Z,12.27
2022-12-01T09:26:28.572Z,12.43
2022-12-01T09:29:06.518Z,13.20
2022-12-01T09:31:35.494Z,12.50
2022-12-01T09:34:06.481Z,12.13
2022-12-01T09:36:36.261Z,12.07
2022-12-01T09:39:05.987Z,12.37
2022-12-01T09:41:38.144Z,12.17
2022-12-01T09:44:15.864Z,12.20
2022-12-01T09:46:47.950Z,12.30
2022-12-01T09:49:22.941Z,13.60
2022-12-01T09:51:51.847Z,13.97
2022-12-01T09:54:19.972Z,13.47
2022-12-01T09:56:53.092Z,13.70
2022-12-01T09:59:23.830Z,12.50
2022-12-01T10:01:56.822Z,12.63
2022-12-01T10:04:32.611Z,13.43
2022-12-01T10:07:03.170Z,12.77
2022-12-01T10:09:37.633Z,12.97
2022-12-01T10:12:14.342Z,12.57
2022-12-01T10:14:44.941Z,12.13
2022-12-01T10:17:22.775Z,13.10
2022-12-01T10:20:01.037Z,13.33
2022-12-01T10:22:46.002Z,13.37
2022-12-01T10:25:22.518Z,13.00
2022-12-01T10:28:01.583Z,14.03
2022-12-01T10:30:30.042Z,13.67
2022-12-01T10:33:03.522Z,13.87
2022-12-01T10:35:37.046Z,14.47
2022-12-01T10:38:07.147Z,13.93
2022-12-01T10:40:35.622Z,15.17
2022-12-01T10:43:04.315Z,15.33
2022-12-01T10:45:36.778Z,14.37
2022-12-01T10:48:17.088Z,14.13
2022-12-01T10:50:50.181Z,14.47
2022-12-01T10:53:28.901Z,16.77
2022-12-01T10:56:04.538Z,14.73
2022-12-01T10:58:34.881Z,15.40
2022-12-01T11:01:05.886Z,15.77
2022-12-01T11:03:37.469Z,15.90
2022-12-01T11:06:08.877Z,16.33
2022-12-01T11:08:41.881Z,16.70
2022-12-01T11:11:25.815Z,15.87
2022-12-01T11:13:54.935Z,16.20
2022-12-01T11:16:40.031Z,14.93
2022-12-01T11:19:27.766Z,17.23
2022-12-01T11:21:58.975Z,16.67
2022-12-01T11:24:31.440Z,17.07
2022-12-01T11:27:01.311Z,17.10
2022-12-01T11:29:35.522Z,16.17
2022-12-01T11:32:12.661Z,15.63
2022-12-01T11:34:40.869Z,16.63
2022-12-01T11:37:18.834Z,15.83
2022-12-01T11:39:48.722Z,17.67
2022-12-01T11:42:26.668Z,17.07
2022-12-01T11:44:58.088Z,16.57
2022-12-01T11:47:27.838Z,17.53
2022-12-01T11:49:58.011Z,17.10
2022-12-01T11:52:31.540Z,16.70
2022-12-01T11:55:19.862Z,16.43
2022-12-01T11:57:51.658Z,15.50
2022-12-01T12:00:22.615Z,15.77
2022-12-01T12:03:17.769Z,16.97
2022-12-01T12:06:38.389Z,15.77
2022-12-01T12:09:12.624Z,16.80
2022-12-01T12:11:50.321Z,16.00
2022-12-01T12:14:38.654Z,17.53
2022-12-01T12:17:22.229Z,15.23
2022-12-01T12:20:12.976Z,12.83
2022-12-01T12:22:56.767Z,14.17
2022-12-01T12:25:36.219Z,12.60
2022-12-01T12:28:18.958Z,12.87
2022-12-01T12:30:57.902Z,12.87
2022-12-01T12:34:00.873Z,12.63
2022-12-01T12:36:42.567Z,12.93
2022-12-01T12:39:27.025Z,12.33
2022-12-01T12:41:57.921Z,12.43
2022-12-01T12:44:48.061Z,13.57
2022-12-01T12:47:31.998Z,11.73
2022-12-01T12:50:10.129Z,11.33
2022-12-01T12:52:43.084Z,10.90
2022-12-01T12:55:19.764Z,10.10
2022-12-01T12:57:53.274Z,9.43
2022-12-01T13:00:24.821Z,8.90
2022-12-01T13:02:59.636Z,9.73
2022-12-01T13:05:36.307Z,8.70
2022-12-01T13:08:08.575Z,9.30
2022-12-01T13:10:44.019Z,8.20
2022-12-01T13:13:32.355Z,8.30
2022-12-01T13:16:06.257Z,8.00
2022-12-01T13:18:40.545Z,7.97
2022-12-01T13:21:13.365Z,7.37
2022-12-01T13:23:41.765Z,7.53
2022-12-01T13:26:11.958Z,8.13
2022-12-01T13:28:43.805Z,8.10
2022-12-01T13:31:14.821Z,7.57
2022-12-01T13:33:54.359Z,7.27
2022-12-01T13:36:45.633Z,7.70
2022-12-01T13:39:20.225Z,6.93
2022-12-01T13:41:59.937Z,7.03
2022-12-01T13:44:33.443Z,7.23
2022-12-01T13:47:05.370Z,6.57
2022-12-01T13:49:43.802Z,7.23
2022-12-01T13:52:33.124Z,7.33
2022-12-01T13:55:26.483Z,7.63
2022-12-01T13:58:23.864Z,7.43
2022-12-01T14:00:53.786Z,7.93
2022-12-01T14:03:42.353Z,8.40
2022-12-01T14:06:21.967Z,8.13
2022-12-01T14:08:51.245Z,6.93
2022-12-01T14:11:23.099Z,8.70
2022-12-01T14:13:54.434Z,8.33
2022-12-01T14:16:24.659Z,7.90
2022-12-01T14:18:56.308Z,8.23
2022-12-01T14:21:43.783Z,8.07
2022-12-01T14:24:23.403Z,8.40
2022-12-01T14:26:53.005Z,8.57
2022-12-01T14:29:33.866Z,8.17
2022-12-01T14:32:24.776Z,8.50
2022-12-01T14:35:00.684Z,8.37
2022-12-01T14:37:37.910Z,8.77
2022-12-01T14:40:12.660Z,8.03
2022-12-01T14:43:01.388Z,8.53
2022-12-01T14:45:33.587Z,8.23
2022-12-01T14:48:05.786Z,8.43
2022-12-01T14:50:45.188Z,8.57
2022-12-01T14:53:24.218Z,9.20
2022-12-01T14:55:57.538Z,8.57
2022-12-01T14:58:28.853Z,8.10
2022-12-01T15:01:05.109Z,8.43
2022-12-01T15:03:39.426Z,8.37
2022-12-01T15:06:08.499Z,9.60
2022-12-01T15:08:49.160Z,8.90
2022-12-01T15:11:25.601Z,9.30
2022-12-01T15:13:55.217Z,9.03
2022-12-01T15:16:25.526Z,10.03
2022-12-01T15:18:55.326Z,9.60
2022-12-01T15:21:25.225Z,9.70
2022-12-01T15:23:54.923Z,9.50
2022-12-01T15:26:25.166Z,9.43
2022-12-01T15:29:16.735Z,9.40
2022-12-01T15:31:47.635Z,9.90
2022-12-01T15:34:20.031Z,10.63
2022-12-01T15:36:49.422Z,9.20
2022-12-01T15:39:19.984Z,10.33
2022-12-01T15:41:54.050Z,9.90
2022-12-01T15:44:27.904Z,10.53
2022-12-01T15:46:56.162Z,9.83
2022-12-01T15:49:30.171Z,9.60
2022-12-01T15:52:07.809Z,10.17
2022-12-01T15:54:38.299Z,9.53
2022-12-01T15:57:07.408Z,10.03
2022-12-01T15:59:40.912Z,11.63
2022-12-01T16:02:24.456Z,10.57
2022-12-01T16:05:03.482Z,10.80
2022-12-01T16:08:11.375Z,11.23
2022-12-01T16:10:30.659Z,10.87
2022-12-01T16:13:32.757Z,10.63
2022-12-01T16:16:00.898Z,11.13
2022-12-01T16:18:32.971Z,12.13
2022-12-01T16:21:05.997Z,11.23
2022-12-01T16:23:34.598Z,11.83
2022-12-01T16:26:09.255Z,12.23
2022-12-01T16:28:37.371Z,10.90
2022-12-01T16:31:08.293Z,12.77
2022-12-01T16:33:39.797Z,12.50
2022-12-01T16:36:09.945Z,14.93
2022-12-01T16:38:38.137Z,13.57
2022-12-01T16:41:16.893Z,12.27
2022-12-01T16:43:59.407Z,12.60
2022-12-01T16:46:33.679Z,12.77
2022-12-01T16:49:02.125Z,12.30
2022-12-01T16:51:54.229Z,14.30
2022-12-01T16:54:19.991Z,13.27
2022-12-01T16:56:49.534Z,13.33
2022-12-01T16:59:17.556Z,13.20
2022-12-01T17:01:45.760Z,13.90
2022-12-01T17:04:13.879Z,13.70
2022-12-01T17:06:43.455Z,14.63
2022-12-01T17:09:11.764Z,14.23
2022-12-01T17:11:39.900Z,13.93
2022-12-01T17:14:08.102Z,13.70
2022-12-01T17:16:36.208Z,13.60
2022-12-01T17:19:05.132Z,16.10
2022-12-01T17:21:33.213Z,14.70
2022-12-01T17:24:02.939Z,14.57
2022-12-01T17:26:31.047Z,15.07
2022-12-01T17:28:59.160Z,13.70
2022-12-01T17:31:27.680Z,13.30
2022-12-01T17:33:56.433Z,14.37
2022-12-01T17:36:24.493Z,14.87
2022-12-01T17:38:52.662Z,14.30
2022-12-01T17:41:24.869Z,14.13
2022-12-01T17:43:53.389Z,15.37
2022-12-01T17:46:21.553Z,14.73
2022-12-01T17:48:49.691Z,14.67
2022-12-01T17:51:17.783Z,14.17
2022-12-01T17:53:46.188Z,13.37
2022-12-01T17:56:17.468Z,14.63
2022-12-01T17:58:46.908Z,15.10
2022-12-01T18:01:17.560Z,15.07
2022-12-01T18:03:46.472Z,13.43
2022-12-01T18:06:15.406Z,14.97
2022-12-01T18:08:43.937Z,13.67
2022-12-01T18:11:14.368Z,14.40
2022-12-01T18:13:44.828Z,16.07
2022-12-01T18:16:16.900Z,15.33
2022-12-01T18:18:45.062Z,14.97
2022-12-01T18:21:15.808Z,15.80
2022-12-01T18:23:49.033Z,14.80
2022-12-01T18:26:17.680Z,16.00
2022-12-01T18:28:45.934Z,13.77
2022-12-01T18:31:17.813Z,13.97
2022-12-01T18:33:46.497Z,15.10
2022-12-01T18:36:16.207Z,13.50
2022-12-01T18:38:47.228Z,14.07
2022-12-01T18:41:16.422Z,14.93
2022-12-01T18:43:45.421Z,14.53
2022-12-01T18:46:16.461Z,15.33
2022-12-01T18:48:46.173Z,15.40
2022-12-01T18:51:14.973Z,14.93
2022-12-01T18:53:45.428Z,14.67
2022-12-01T18:56:15.338Z,13.97
2022-12-01T18:58:43.900Z,16.23
2022-12-01T19:01:21.684Z,15.00
2022-12-01T19:03:50.796Z,14.83
2022-12-01T19:06:19.407Z,15.07
2022-12-01T19:08:48.574Z,15.03
2022-12-01T19:11:17.717Z,15.37
2022-12-01T19:13:46.161Z,15.93
2022-12-01T19:16:16.150Z,14.43
2022-12-01T19:18:46.126Z,14.93
2022-12-01T19:21:16.347Z,15.80
2022-12-01T19:23:44.898Z,16.70
2022-12-01T19:26:15.180Z,15.87
2022-12-01T19:28:45.632Z,15.03
2022-12-01T19:31:16.612Z,15.67
2022-12-01T19:33:46.473Z,15.93
2022-12-01T19:36:18.340Z,15.70
2022-12-01T19:38:47.641Z,15.10
2022-12-01T19:41:16.460Z,14.10
2022-12-01T19:43:44.662Z,14.70
2022-12-01T19:46:14.963Z,18.40
2022-12-01T19:48:45.103Z,16.30
2022-12-01T19:51:21.272Z,15.63
2022-12-01T19:53:50.189Z,16.70
2022-12-01T19:56:18.282Z,16.27
2022-12-01T19:58:47.202Z,15.83
2022-12-01T20:01:16.646Z,17.40
2022-12-01T20:03:48.820Z,17.07
2022-12-01T20:06:18.675Z,16.97
2022-12-01T20:08:47.864Z,16.33
2022-12-01T20:11:16.480Z,15.97
2022-12-01T20:13:46.117Z,15.37
2022-12-01T20:16:17.186Z,15.40
2022-12-01T20:18:45.498Z,14.53
2022-12-01T20:21:17.400Z,15.43
2022-12-01T20:23:46.947Z,15.33
2022-12-01T20:26:17.139Z,15.10
2022-12-01T20:28:46.897Z,18.10
2022-12-01T20:31:17.672Z,18.20
2022-12-01T20:33:46.683Z,15.53
2022-12-01T20:36:16.885Z,16.03
2022-12-01T20:38:45.239Z,14.93
2022-12-01T20:41:16.214Z,13.67
2022-12-01T20:43:44.465Z,15.57
2022-12-01T20:46:13.084Z,14.97
2022-12-01T20:48:41.484Z,14.27
2022-12-01T20:51:10.626Z,14.33
2022-12-01T20:53:40.100Z,13.70
2022-12-01T20:56:11.022Z,15.00
2022-12-01T20:58:40.419Z,15.93
2022-12-01T21:01:10.543Z,15.33
2022-12-01T21:03:40.229Z,16.07
2022-12-01T21:06:08.984Z,15.23
2022-12-01T21:08:39.676Z,15.00
2022-12-01T21:11:10.193Z,15.63
2022-12-01T21:13:42.467Z,18.83
2022-12-01T21:16:18.188Z,17.90
2022-12-01T21:18:52.217Z,17.40
2022-12-01T21:21:27.650Z,14.50
2022-12-01T21:24:13.786Z,15.63
2022-12-01T21:26:46.784Z,16.90
2022-12-01T21:29:24.843Z,16.60
2022-12-01T21:31:54.956Z,15.57
2022-12-01T21:34:25.124Z,17.43
2022-12-01T21:36:55.631Z,16.63
2022-12-01T21:39:26.574Z,18.10
2022-12-01T21:41:57.870Z,15.57
2022-12-01T21:44:33.926Z,14.17
2022-12-01T21:47:17.194Z,15.63
2022-12-01T21:49:45.767Z,14.97
2022-12-01T21:52:19.058Z,16.10
2022-12-01T21:54:49.129Z,13.83
2022-12-01T21:57:32.677Z,15.10
2022-12-01T22:00:26.461Z,17.30
2022-12-01T22:03:05.233Z,20.83
2022-12-01T22:05:38.639Z,15.90
2022-12-01T22:08:16.915Z,15.73
2022-12-01T22:10:57.419Z,17.10
2022-12-01T22:13:30.328Z,15.13
2022-12-01T22:15:59.354Z,14.17
2022-12-01T22:18:33.989Z,13.17
2022-12-01T22:21:18.436Z,15.53
2022-12-01T22:23:46.506Z,17.93
2022-12-01T22:26:20.579Z,15.27
2022-12-01T22:28:52.651Z,14.97
2022-12-01T22:31:22.900Z,13.53
2022-12-01T22:34:01.523Z,14.67
2022-12-01T22:36:34.601Z,14.13
2022-12-01T22:39:02.866Z,20.07
2022-12-01T22:41:33.629Z,22.70
2022-12-01T22:44:01.727Z,21.30
2022-12-01T22:46:34.028Z,25.90
2022-12-01T22:49:13.699Z,17.00
2022-12-01T22:51:44.563Z,14.10
2022-12-01T22:54:38.647Z,16.63
2022-12-01T22:57:25.358Z,20.20
2022-12-01T22:59:53.859Z,13.33
2022-12-01T23:02:24.605Z,13.83
2022-12-01T23:04:56.745Z,23.90
2022-12-01T23:07:31.614Z,17.37
2022-12-01T23:10:09.410Z,15.43
2022-12-01T23:12:39.967Z,14.73
2022-12-01T23:15:33.221Z,14.57
2022-12-01T23:18:10.639Z,14.13
2022-12-01T23:20:38.974Z,14.47
2022-12-01T23:23:13.436Z,15.07
2022-12-01T23:25:42.568Z,14.97
2022-12-01T23:28:13.430Z,14.63
2022-12-01T23:30:43.841Z,13.40
2022-12-01T23:33:18.753Z,14.17
2022-12-01T23:35:51.768Z,14.00
2022-12-01T23:38:23.284Z,12.80
2022-12-01T23:40:54.029Z,12.30
2022-12-01T23:43:26.395Z,13.47
2022-12-01T23:46:03.377Z,11.73
2022-12-01T23:48:37.032Z,11.53
2022-12-01T23:51:11.624Z,11.67
2022-12-01T23:53:41.152Z,12.00
2022-12-01T23:56:13.698Z,11.47
2022-12-01T23:58:44.437Z,10.93
